Time;durP1;ratioP1;P1;durP2;ratioP2;P2;SDS_P1;SDS_P2;PMS_P1;PMS_P2;Temp;Humidity;BMP_temperature;BMP_pressure;BME280_temperature;BME280_humidity;BME280_pressure;Samples;Min_cycle;Max_cycle;Signal;HPM_P1;HPM_P2
2022/03/09 00:01:41;;;;;;;2.20;1.95;;;2.40;99.90;;;;;;4434847;32;20073;-63
2022/03/09 00:04:06;;;;;;;1.58;1.33;;;2.40;99.90;;;;;;4435091;32;20932;-64
2022/03/09 00:06:32;;;;;;;1.15;1.05;;;2.50;99.90;;;;;;4419002;32;20124;-64
2022/03/09 00:08:58;;;;;;;1.95;1.50;;;2.60;99.90;;;;;;4439213;32;20445;-64
2022/03/09 00:11:23;;;;;;;1.37;1.10;;;2.50;99.90;;;;;;4435447;32;20061;-64
2022/03/09 00:13:49;;;;;;;0.88;0.88;;;2.50;99.90;;;;;;4432581;32;20053;-64
2022/03/09 00:16:14;;;;;;;1.75;1.40;;;2.50;99.90;;;;;;4417745;32;20136;-64
2022/03/09 00:18:40;;;;;;;2.25;1.08;;;2.40;99.90;;;;;;4439234;32;20431;-64
2022/03/09 00:21:06;;;;;;;2.10;1.42;;;2.50;99.90;;;;;;4413758;32;20160;-65
2022/03/09 00:23:31;;;;;;;1.37;1.23;;;2.60;99.90;;;;;;4439630;32;20530;-64
2022/03/09 00:25:57;;;;;;;1.60;1.45;;;2.70;99.90;;;;;;4434655;32;20574;-64
2022/03/09 00:28:23;;;;;;;0.88;0.88;;;2.70;99.90;;;;;;4421446;32;20073;-64
2022/03/09 00:30:48;;;;;;;1.45;1.35;;;2.50;99.90;;;;;;4439261;32;20098;-64
2022/03/09 00:33:14;;;;;;;1.15;1.08;;;2.20;99.90;;;;;;4435047;32;20074;-64
2022/03/09 00:35:39;;;;;;;2.45;1.77;;;2.10;99.90;;;;;;4435073;32;20467;-64
2022/03/09 00:38:06;;;;;;;8.27;1.33;;;2.10;99.90;;;;;;4416410;32;20123;-64
2022/03/09 00:40:31;;;;;;;2.08;1.40;;;2.00;99.90;;;;;;4421394;32;20062;-64
2022/03/09 00:42:57;;;;;;;0.82;0.82;;;2.00;99.90;;;;;;4433963;32;20119;-64
2022/03/09 00:45:23;;;;;;;1.48;1.23;;;2.10;99.90;;;;;;4438918;32;20065;-64
2022/03/09 00:47:48;;;;;;;1.70;1.60;;;2.30;99.90;;;;;;4438605;32;20478;-64
2022/03/09 00:50:14;;;;;;;0.75;0.75;;;2.40;99.90;;;;;;4440501;32;20084;-64
2022/03/09 00:52:39;;;;;;;1.15;1.05;;;2.30;99.90;;;;;;4430457;32;20069;-64
2022/03/09 00:55:07;;;;;;;1.05;1.02;;;2.20;99.90;;;;;;4434681;32;20492;-64
2022/03/09 00:57:32;;;;;;;1.17;1.08;;;2.00;99.90;;;;;;4439145;32;20458;-64
2022/03/09 00:59:58;;;;;;;1.20;1.02;;;2.10;99.90;;;;;;4435818;32;20077;-64
2022/03/09 01:02:23;;;;;;;2.72;1.87;;;2.20;99.90;;;;;;4433411;32;20311;-64
2022/03/09 01:04:49;;;;;;;3.70;1.27;;;2.10;99.90;;;;;;4438524;32;20114;-64
2022/03/09 01:07:14;;;;;;;2.53;1.60;;;1.90;99.90;;;;;;4436320;32;20068;-64
2022/03/09 01:09:40;;;;;;;21.73;3.35;;;2.00;99.90;;;;;;4434705;32;20645;-64
2022/03/09 01:12:05;;;;;;;1.27;1.08;;;2.10;99.90;;;;;;4439433;32;20061;-64
2022/03/09 01:14:31;;;;;;;1.37;1.10;;;2.10;99.90;;;;;;4437836;32;20065;-63
2022/03/09 01:16:57;;;;;;;2.08;1.27;;;2.00;99.90;;;;;;4419880;32;20061;-64
2022/03/09 01:19:22;;;;;;;0.85;0.85;;;2.10;99.90;;;;;;4422590;32;20061;-63
2022/03/09 01:21:48;;;;;;;1.95;1.77;;;2.10;99.90;;;;;;4422364;32;20116;-63
2022/03/09 01:24:13;;;;;;;1.27;1.12;;;2.20;99.90;;;;;;4432713;32;20074;-63
2022/03/09 01:26:39;;;;;;;0.93;0.93;;;2.10;99.90;;;;;;4432314;32;20053;-64
2022/03/09 01:29:06;;;;;;;0.60;0.60;;;2.00;99.90;;;;;;4431546;32;20061;-64
2022/03/09 01:31:32;;;;;;;1.08;1.00;;;2.00;99.90;;;;;;4435640;32;20115;-64
2022/03/09 01:33:57;;;;;;;2.10;1.83;;;2.10;99.90;;;;;;4433990;32;20065;-63
2022/03/09 01:36:23;;;;;;;1.73;1.42;;;2.00;99.90;;;;;;4433534;32;20147;-64
2022/03/09 01:38:48;;;;;;;1.15;1.10;;;1.90;99.90;;;;;;4432606;32;20077;-64
2022/03/09 01:41:14;;;;;;;13.35;2.60;;;1.80;99.90;;;;;;4435176;32;20077;-64
2022/03/09 01:43:39;;;;;;;2.92;0.95;;;1.90;99.90;;;;;;4435269;32;20065;-64
2022/03/09 01:46:05;;;;;;;0.77;0.77;;;1.90;99.90;;;;;;4426292;32;20073;-64
2022/03/09 01:48:30;;;;;;;0.95;0.93;;;1.90;99.90;;;;;;4437218;32;20123;-64
2022/03/09 01:50:56;;;;;;;7.20;1.65;;;2.00;99.90;;;;;;4439782;32;20083;-64
2022/03/09 01:53:22;;;;;;;1.33;1.25;;;2.00;99.90;;;;;;4437095;32;20509;-64
2022/03/09 01:55:47;;;;;;;1.12;0.90;;;2.00;99.90;;;;;;4419319;32;20112;-64
2022/03/09 01:58:13;;;;;;;0.90;0.80;;;2.00;99.90;;;;;;4435927;32;20458;-64
2022/03/09 02:00:38;;;;;;;8.88;1.75;;;2.00;99.90;;;;;;4431732;32;20077;-64
2022/03/09 02:03:04;;;;;;;0.88;0.88;;;1.80;99.90;;;;;;4434731;32;20065;-65
2022/03/09 02:05:30;;;;;;;0.65;0.65;;;1.90;99.90;;;;;;4420730;32;20077;-63
2022/03/09 02:09:56;;;;;;;3.00;2.08;;;1.90;99.90;;;;;;4420632;32;20541;-64
2022/03/09 02:10:41;;;;;;;1.90;1.67;;;1.90;99.90;;;;;;4421249;32;20073;-64
2022/03/09 02:13:08;;;;;;;1.42;1.33;;;1.90;99.90;;;;;;4440853;32;20517;-64
2022/03/09 02:15:33;;;;;;;1.23;1.12;;;1.80;99.90;;;;;;4435094;32;20120;-64
2022/03/09 02:18:00;;;;;;;1.65;1.02;;;1.90;99.90;;;;;;4438688;32;20077;-64
2022/03/09 02:20:26;;;;;;;1.85;1.08;;;1.90;99.90;;;;;;4430564;32;20084;-64
2022/03/09 02:22:53;;;;;;;2.90;1.65;;;1.80;99.90;;;;;;4437852;32;20056;-64
2022/03/09 02:25:19;;;;;;;2.40;2.08;;;1.70;99.90;;;;;;4434086;32;20064;-64
2022/03/09 02:27:45;;;;;;;1.08;1.05;;;1.70;99.90;;;;;;4436839;32;20537;-64
2022/03/09 02:30:14;;;;;;;0.47;0.47;;;1.70;99.90;;;;;;4437787;32;20073;-64
2022/03/09 02:32:41;;;;;;;4.50;2.65;;;1.70;99.90;;;;;;4411915;32;20496;-64
2022/03/09 02:35:08;;;;;;;6.37;2.10;;;1.70;99.90;;;;;;4437377;32;20102;-63
2022/03/09 02:37:33;;;;;;;1.77;1.62;;;1.50;99.90;;;;;;4433911;32;20116;-64
2022/03/09 02:39:58;;;;;;;0.60;0.60;;;1.40;99.90;;;;;;4431240;32;20069;-64
2022/03/09 02:42:24;;;;;;;4.37;1.83;;;1.40;99.90;;;;;;4436800;32;20121;-65
2022/03/09 02:44:49;;;;;;;0.80;0.80;;;1.50;99.90;;;;;;4433403;32;20092;-65
2022/03/09 02:47:15;;;;;;;1.08;1.05;;;1.50;99.90;;;;;;4434137;32;20438;-65
2022/03/09 02:49:40;;;;;;;4.45;3.10;;;1.50;99.90;;;;;;4438493;32;20069;-65
2022/03/09 02:52:06;;;;;;;1.98;1.20;;;1.50;99.90;;;;;;4434621;32;20057;-65
2022/03/09 02:54:32;;;;;;;2.70;2.10;;;1.60;99.90;;;;;;4434990;32;20169;-65
2022/03/09 02:56:57;;;;;;;0.85;0.85;;;1.70;99.90;;;;;;4420392;32;20113;-65
2022/03/09 02:59:23;;;;;;;0.77;0.77;;;1.60;99.90;;;;;;4408343;32;20144;-65
2022/03/09 03:01:48;;;;;;;2.58;1.23;;;1.60;99.90;;;;;;4434305;32;20121;-65
2022/03/09 03:04:14;;;;;;;0.77;0.77;;;1.60;99.90;;;;;;4421465;32;20147;-65
2022/03/09 03:06:39;;;;;;;4.85;2.17;;;1.60;99.90;;;;;;4430337;32;20077;-65
2022/03/09 03:09:05;;;;;;;1.25;1.15;;;1.60;99.90;;;;;;4430979;32;20136;-65
2022/03/09 03:11:30;;;;;;;3.72;1.55;;;1.50;99.90;;;;;;4431853;32;20069;-65
2022/03/09 03:13:56;;;;;;;0.70;0.70;;;1.30;99.90;;;;;;4436023;32;20069;-64
2022/03/09 03:16:21;;;;;;;1.30;0.98;;;1.40;99.90;;;;;;4421850;32;20078;-65
2022/03/09 03:18:47;;;;;;;1.62;1.12;;;1.40;99.90;;;;;;4431780;32;20123;-64
2022/03/09 03:21:12;;;;;;;3.62;1.25;;;1.30;99.90;;;;;;4420056;32;20073;-64
2022/03/09 03:23:38;;;;;;;1.20;1.12;;;1.40;99.90;;;;;;4435134;32;20081;-64
2022/03/09 03:26:05;;;;;;;0.82;0.82;;;1.40;99.90;;;;;;4433738;32;20149;-65
2022/03/09 03:28:31;;;;;;;3.80;2.15;;;1.50;99.90;;;;;;4435528;32;20065;-64
2022/03/09 03:30:57;;;;;;;2.45;1.55;;;1.50;99.90;;;;;;4432066;32;20065;-65
2022/03/09 03:33:23;;;;;;;1.25;0.98;;;1.50;99.90;;;;;;4417781;32;20155;-65
2022/03/09 03:35:49;;;;;;;0.80;0.80;;;1.50;99.90;;;;;;4421635;32;20557;-65
2022/03/09 03:38:15;;;;;;;1.55;1.40;;;1.50;99.90;;;;;;4420678;32;20061;-64
2022/03/09 03:40:42;;;;;;;1.37;1.10;;;1.40;99.90;;;;;;4434855;32;20070;-64
2022/03/09 03:43:08;;;;;;;2.72;1.52;;;1.30;99.90;;;;;;4421103;32;20074;-65
2022/03/09 03:45:33;;;;;;;1.55;0.90;;;1.30;99.90;;;;;;4420102;32;20495;-65
2022/03/09 03:47:59;;;;;;;1.08;0.88;;;1.30;99.90;;;;;;4420973;32;20611;-64
2022/03/09 03:50:25;;;;;;;4.85;2.42;;;1.20;99.90;;;;;;4420242;32;20057;-64
2022/03/09 03:52:51;;;;;;;2.62;1.37;;;1.10;99.90;;;;;;4441230;32;20102;-64
2022/03/09 03:55:16;;;;;;;0.55;0.55;;;1.10;99.90;;;;;;4424844;32;20082;-64
2022/03/09 03:57:42;;;;;;;0.73;0.73;;;1.10;99.90;;;;;;4441529;32;20097;-64
2022/03/09 04:00:09;;;;;;;1.27;1.17;;;1.00;99.90;;;;;;4437848;32;20070;-64
2022/03/09 04:02:35;;;;;;;1.05;1.02;;;0.90;99.90;;;;;;4425673;32;20077;-64
2022/03/09 04:05:00;;;;;;;1.87;1.50;;;0.90;99.90;;;;;;4424353;32;20050;-65
2022/03/09 04:07:26;;;;;;;1.67;1.58;;;1.10;99.90;;;;;;4439123;32;20085;-64
2022/03/09 04:09:52;;;;;;;4.68;1.45;;;1.10;99.90;;;;;;4419073;32;20429;-64
2022/03/09 04:12:18;;;;;;;0.88;0.88;;;1.10;99.90;;;;;;4420305;32;20144;-64
2022/03/09 04:14:43;;;;;;;3.40;1.45;;;1.20;99.90;;;;;;4438303;32;20145;-64
2022/03/09 04:17:09;;;;;;;1.52;1.42;;;1.20;99.90;;;;;;4435801;32;20146;-65
2022/03/09 04:19:34;;;;;;;2.62;1.75;;;1.20;99.90;;;;;;4419738;32;20115;-64
2022/03/09 04:22:00;;;;;;;0.70;0.70;;;0.90;99.90;;;;;;4437877;32;20151;-64
2022/03/09 04:24:25;;;;;;;2.87;1.27;;;0.90;99.90;;;;;;4433728;32;20066;-64
2022/03/09 04:26:51;;;;;;;10.55;2.60;;;0.80;99.90;;;;;;4434144;32;20556;-64
2022/03/09 04:29:17;;;;;;;5.00;1.30;;;1.00;99.90;;;;;;4434334;32;20129;-64
2022/03/09 04:31:42;;;;;;;1.30;1.20;;;1.10;99.90;;;;;;4435932;32;20474;-65
2022/03/09 04:34:08;;;;;;;12.82;1.92;;;1.10;99.90;;;;;;4435816;32;20093;-64
2022/03/09 04:36:33;;;;;;;3.85;1.25;;;1.10;99.90;;;;;;4436605;32;20466;-64
2022/03/09 04:38:59;;;;;;;0.82;0.82;;;1.20;99.90;;;;;;4438978;32;20093;-65
2022/03/09 04:41:25;;;;;;;103.03;2.55;;;1.10;99.90;;;;;;4433312;32;20068;-64
2022/03/09 04:43:50;;;;;;;2.53;1.50;;;1.10;99.90;;;;;;4438297;32;20548;-64
2022/03/09 04:46:16;;;;;;;0.55;0.55;;;1.10;99.90;;;;;;4422563;32;20065;-64
2022/03/09 04:48:43;;;;;;;2.00;1.60;;;1.20;99.90;;;;;;4418120;32;20431;-64
2022/03/09 04:51:09;;;;;;;1.37;1.05;;;1.00;99.90;;;;;;4438513;32;20077;-64
2022/03/09 04:53:34;;;;;;;4.15;1.67;;;0.80;99.90;;;;;;4437679;32;20058;-64
2022/03/09 04:56:00;;;;;;;0.70;0.70;;;0.70;99.90;;;;;;4434421;32;20073;-64
2022/03/09 04:58:25;;;;;;;7.35;1.55;;;0.70;99.90;;;;;;4437682;32;20126;-64
2022/03/09 05:00:51;;;;;;;1.42;1.33;;;0.80;99.90;;;;;;4435839;32;20472;-64
2022/03/09 05:03:17;;;;;;;0.65;0.65;;;0.90;99.90;;;;;;4433056;32;20057;-64
2022/03/09 05:05:42;;;;;;;0.82;0.80;;;1.00;99.90;;;;;;4435843;32;20419;-64
2022/03/09 05:08:09;;;;;;;0.93;0.93;;;1.10;99.90;;;;;;4417028;32;20056;-64
2022/03/09 05:10:35;;;;;;;1.87;1.65;;;0.90;99.90;;;;;;4421767;32;20069;-64
2022/03/09 05:13:01;;;;;;;1.73;1.55;;;0.90;99.90;;;;;;4422226;32;20127;-64
2022/03/09 05:15:26;;;;;;;0.80;0.80;;;1.00;99.90;;;;;;4435696;32;20110;-64
2022/03/09 05:17:52;;;;;;;0.80;0.80;;;1.00;99.90;;;;;;4434132;32;20091;-64
2022/03/09 05:20:19;;;;;;;2.28;1.77;;;1.00;99.90;;;;;;4432603;32;20081;-64
2022/03/09 05:22:45;;;;;;;0.70;0.70;;;1.00;99.90;;;;;;4426925;32;20415;-64
2022/03/09 05:25:11;;;;;;;0.80;0.80;;;1.00;99.90;;;;;;4435131;32;20069;-63
2022/03/09 05:27:37;;;;;;;2.80;1.75;;;1.00;99.90;;;;;;4435603;32;20111;-64
2022/03/09 05:30:03;;;;;;;6.45;2.78;;;1.10;99.90;;;;;;4432288;32;20481;-64
2022/03/09 05:32:29;;;;;;;3.55;1.85;;;1.10;99.90;;;;;;4421488;32;20057;-63
2022/03/09 05:34:54;;;;;;;2.22;1.62;;;1.00;99.90;;;;;;4420400;32;20127;-63
2022/03/09 05:37:21;;;;;;;1.00;1.00;;;1.10;99.90;;;;;;4432766;32;20531;-64
2022/03/09 05:39:47;;;;;;;1.48;1.37;;;1.10;99.90;;;;;;4433382;32;20096;-64
2022/03/09 05:42:12;;;;;;;0.62;0.62;;;1.00;99.90;;;;;;4434399;32;20061;-64
2022/03/09 05:44:38;;;;;;;1.00;0.98;;;0.90;99.90;;;;;;4434704;32;20516;-64
2022/03/09 05:47:05;;;;;;;6.43;3.50;;;0.90;99.90;;;;;;4436755;32;20168;-64
2022/03/09 05:49:30;;;;;;;1.25;1.00;;;0.90;99.90;;;;;;4431366;32;20097;-64
2022/03/09 05:51:56;;;;;;;4.07;2.65;;;1.00;99.90;;;;;;4417302;32;20395;-64
2022/03/09 05:54:21;;;;;;;1.60;1.35;;;1.00;99.90;;;;;;4434173;32;20617;-64
2022/03/09 05:56:47;;;;;;;1.02;1.02;;;1.00;99.90;;;;;;4420598;32;20088;-64
2022/03/09 05:59:13;;;;;;;1.05;1.05;;;1.10;99.90;;;;;;4434792;32;20081;-64
2022/03/09 06:01:38;;;;;;;1.85;1.35;;;0.90;99.90;;;;;;4429570;32;20108;-64
2022/03/09 06:04:05;;;;;;;9.82;1.85;;;0.90;99.90;;;;;;4430959;32;20145;-64
2022/03/09 06:06:31;;;;;;;3.65;2.33;;;0.90;99.90;;;;;;4432870;32;20060;-64
2022/03/09 06:08:57;;;;;;;1.40;1.15;;;0.90;99.90;;;;;;4420043;32;20128;-65
2022/03/09 06:11:23;;;;;;;3.00;2.42;;;0.80;99.90;;;;;;4431912;32;20608;-64
2022/03/09 06:13:48;;;;;;;1.50;1.40;;;0.80;99.90;;;;;;4413066;32;20470;-64
2022/03/09 06:16:14;;;;;;;24.75;2.83;;;1.00;99.90;;;;;;4433802;32;20077;-64
2022/03/09 06:18:39;;;;;;;1.37;1.27;;;1.00;99.90;;;;;;4404329;32;20683;-64
2022/03/09 06:21:05;;;;;;;0.70;0.70;;;1.10;99.90;;;;;;4432216;32;20412;-64
2022/03/09 06:23:31;;;;;;;1.40;1.23;;;1.20;99.90;;;;;;4418668;32;20505;-65
2022/03/09 06:25:56;;;;;;;3.92;1.42;;;1.20;99.90;;;;;;4428683;32;20431;-64
2022/03/09 06:28:22;;;;;;;0.85;0.80;;;1.30;99.90;;;;;;4421673;32;20101;-65
2022/03/09 06:30:48;;;;;;;3.50;2.08;;;1.30;99.90;;;;;;4394862;32;20097;-65
2022/03/09 06:33:14;;;;;;;3.80;1.50;;;1.40;99.90;;;;;;4414143;32;20074;-65
2022/03/09 06:35:40;;;;;;;1.70;1.60;;;1.50;99.90;;;;;;4409865;32;20073;-63
2022/03/09 06:38:06;;;;;;;2.67;1.65;;;1.50;99.90;;;;;;4413042;32;20097;-64
2022/03/09 06:40:33;;;;;;;1.55;1.45;;;1.60;99.90;;;;;;4425601;32;20057;-64
2022/03/09 06:43:00;;;;;;;6.00;2.60;;;1.80;99.90;;;;;;4408614;32;20225;-65
2022/03/09 06:45:27;;;;;;;1.35;1.25;;;1.80;99.90;;;;;;4408287;32;20101;-64
2022/03/09 06:47:53;;;;;;;7.47;3.70;;;1.90;99.90;;;;;;4412232;32;20072;-65
2022/03/09 06:50:19;;;;;;;1.77;1.37;;;2.00;99.90;;;;;;4409110;32;20105;-64
2022/03/09 06:52:45;;;;;;;1.73;1.58;;;2.10;99.90;;;;;;4409885;32;20518;-65
2022/03/09 06:55:12;;;;;;;2.33;1.75;;;2.20;99.90;;;;;;4408527;32;21506;-64
2022/03/09 06:57:38;;;;;;;2.25;1.90;;;2.30;99.90;;;;;;4402650;32;20172;-66
2022/03/09 07:00:08;;;;;;;2.55;1.25;;;2.40;99.90;;;;;;4410558;32;20174;-63
2022/03/09 07:02:34;;;;;;;3.67;2.35;;;2.60;99.90;;;;;;4398380;32;20148;-64
2022/03/09 07:04:59;;;;;;;3.70;2.08;;;2.70;99.90;;;;;;4400868;32;20131;-64
2022/03/09 07:07:25;;;;;;;6.10;2.20;;;2.80;99.90;;;;;;4422648;32;20119;-64
2022/03/09 07:09:50;;;;;;;0.52;0.52;;;2.90;99.90;;;;;;4419846;32;20066;-63
2022/03/09 07:12:16;;;;;;;1.30;1.00;;;3.00;99.90;;;;;;4409458;32;20128;-62
2022/03/09 07:14:41;;;;;;;2.95;1.27;;;3.00;99.90;;;;;;4424864;32;20429;-63
2022/03/09 07:17:07;;;;;;;3.00;1.23;;;3.10;99.90;;;;;;4424669;32;20104;-63
2022/03/09 07:19:32;;;;;;;2.55;1.55;;;3.30;99.90;;;;;;4424175;32;20533;-63
2022/03/09 07:21:58;;;;;;;1.85;1.02;;;3.40;99.90;;;;;;4420184;32;20527;-63
2022/03/09 07:24:23;;;;;;;4.28;1.95;;;3.50;99.90;;;;;;4419595;32;20430;-63
2022/03/09 07:26:49;;;;;;;3.37;2.15;;;3.70;99.90;;;;;;4422961;32;20110;-63
2022/03/09 07:29:17;;;;;;;0.80;0.80;;;3.70;99.90;;;;;;4426580;32;20115;-62
2022/03/09 07:31:42;;;;;;;4.72;0.98;;;4.00;99.90;;;;;;4428926;32;20288;-63
2022/03/09 07:34:08;;;;;;;0.95;0.93;;;4.10;99.90;;;;;;4423303;32;104369;-63
2022/03/09 07:36:34;;;;;;;1.20;1.10;;;4.20;99.90;;;;;;4413141;32;20057;-63
2022/03/09 07:38:59;;;;;;;0.55;0.55;;;4.30;99.90;;;;;;4411281;32;20045;-62
2022/03/09 07:41:25;;;;;;;3.97;1.23;;;4.50;99.90;;;;;;4429182;32;20128;-63
2022/03/09 07:43:51;;;;;;;0.60;0.60;;;4.50;99.90;;;;;;4428198;32;20457;-64
2022/03/09 07:46:16;;;;;;;0.57;0.57;;;4.70;99.90;;;;;;4426111;32;20076;-62
2022/03/09 07:48:42;;;;;;;0.80;0.80;;;4.90;99.90;;;;;;4426046;32;20584;-63
2022/03/09 07:51:07;;;;;;;1.48;0.98;;;5.00;99.90;;;;;;4428462;32;20098;-64
2022/03/09 07:53:33;;;;;;;1.48;1.37;;;5.10;99.90;;;;;;4427924;32;20060;-62
2022/03/09 07:55:59;;;;;;;1.00;0.93;;;5.20;99.90;;;;;;4424638;32;20068;-63
2022/03/09 07:58:24;;;;;;;3.37;1.27;;;5.30;99.90;;;;;;4425331;32;20870;-64
2022/03/09 08:00:50;;;;;;;0.62;0.62;;;5.50;99.90;;;;;;4423581;32;20116;-62
2022/03/09 08:03:15;;;;;;;0.70;0.70;;;5.60;99.90;;;;;;4423720;32;20510;-63
2022/03/09 08:05:43;;;;;;;1.00;0.88;;;5.70;99.90;;;;;;4408223;32;20064;-62
2022/03/09 08:08:08;;;;;;;0.80;0.80;;;5.80;99.90;;;;;;4419756;32;20119;-63
2022/03/09 08:10:34;;;;;;;1.30;1.20;;;5.90;99.90;;;;;;4421343;32;20101;-63
2022/03/09 08:12:59;;;;;;;8.75;1.37;;;6.10;99.90;;;;;;4414956;32;20110;-63
2022/03/09 08:15:24;;;;;;;1.17;1.05;;;6.20;99.90;;;;;;4421017;32;20069;-63
2022/03/09 08:17:50;;;;;;;1.65;1.40;;;6.30;99.90;;;;;;4424701;32;20218;-63
2022/03/09 08:20:15;;;;;;;0.93;0.90;;;6.50;99.90;;;;;;4423865;32;20604;-64
2022/03/09 08:22:42;;;;;;;1.52;1.10;;;6.70;99.90;;;;;;4424834;32;20505;-64
2022/03/09 08:25:08;;;;;;;0.70;0.70;;;6.80;99.90;;;;;;4424017;32;20150;-63
2022/03/09 08:27:33;;;;;;;0.90;0.85;;;6.90;99.90;;;;;;4424653;32;20073;-64
2022/03/09 08:29:59;;;;;;;0.60;0.60;;;7.00;99.90;;;;;;4421149;32;20883;-64
2022/03/09 08:32:24;;;;;;;1.40;0.88;;;7.10;99.90;;;;;;4419129;32;22097;-64
2022/03/09 08:34:50;;;;;;;1.58;1.42;;;7.30;99.90;;;;;;4403525;32;20806;-64
2022/03/09 08:37:16;;;;;;;0.80;0.80;;;7.50;99.90;;;;;;4423938;32;20153;-64
2022/03/09 08:39:43;;;;;;;1.10;1.08;;;7.60;99.90;;;;;;4407258;32;20069;-64
2022/03/09 08:42:09;;;;;;;0.75;0.75;;;7.80;99.90;;;;;;4407211;32;20343;-64
2022/03/09 08:44:35;;;;;;;1.87;1.27;;;8.00;99.90;;;;;;4424054;32;20072;-66
2022/03/09 08:47:01;;;;;;;2.10;1.33;;;8.10;99.90;;;;;;4422168;32;20096;-65
2022/03/09 08:49:27;;;;;;;0.47;0.47;;;8.30;99.90;;;;;;4411085;32;20101;-65
2022/03/09 08:51:52;;;;;;;1.48;1.00;;;8.40;99.90;;;;;;4394262;32;20191;-65
2022/03/09 08:54:18;;;;;;;0.73;0.68;;;8.40;99.90;;;;;;4409188;32;20088;-65
2022/03/09 08:56:43;;;;;;;1.10;1.00;;;8.50;99.90;;;;;;4413043;32;20073;-63
2022/03/09 08:59:09;;;;;;;6.93;1.60;;;8.60;99.90;;;;;;4415888;32;21242;-64
2022/03/09 09:01:34;;;;;;;15.98;2.90;;;8.70;99.90;;;;;;4415062;32;20589;-65
2022/03/09 09:04:01;;;;;;;0.57;0.52;;;8.80;99.90;;;;;;4410958;32;20955;-65
2022/03/09 09:06:26;;;;;;;0.82;0.82;;;8.80;99.90;;;;;;4396758;32;20559;-64
2022/03/09 09:08:52;;;;;;;0.80;0.80;;;9.00;99.90;;;;;;4414533;32;20301;-65
2022/03/09 09:11:17;;;;;;;2.90;1.30;;;9.10;99.90;;;;;;4413922;32;20930;-65
2022/03/09 09:13:43;;;;;;;0.95;0.88;;;9.10;99.90;;;;;;4416812;32;20080;-65
2022/03/09 09:16:08;;;;;;;0.88;0.88;;;9.20;99.90;;;;;;4409399;32;20179;-65
2022/03/09 09:18:34;;;;;;;2.10;0.80;;;9.40;99.90;;;;;;4411338;32;20146;-65
2022/03/09 09:20:59;;;;;;;1.83;1.25;;;9.50;99.90;;;;;;4402041;32;20621;-64
2022/03/09 09:23:25;;;;;;;2.80;1.40;;;9.70;99.90;;;;;;4410882;32;20674;-65
2022/03/09 09:25:50;;;;;;;0.68;0.68;;;9.80;99.90;;;;;;4411730;32;20188;-63
2022/03/09 09:28:17;;;;;;;0.47;0.47;;;9.90;99.90;;;;;;4411549;32;20105;-64
2022/03/09 09:30:43;;;;;;;0.60;0.60;;;10.10;99.90;;;;;;4411596;32;20158;-64
2022/03/09 09:33:09;;;;;;;1.45;0.90;;;10.10;99.90;;;;;;4409109;32;20099;-64
2022/03/09 09:35:34;;;;;;;4.20;0.55;;;10.30;99.90;;;;;;4383445;32;20110;-64
2022/03/09 09:38:06;;;;;;;0.70;0.70;;;10.40;99.90;;;;;;4393199;32;20121;-65
2022/03/09 09:40:32;;;;;;;0.50;0.50;;;10.50;99.60;;;;;;4393248;32;20167;-65
2022/03/09 09:42:58;;;;;;;1.73;0.85;;;10.40;99.60;;;;;;4393473;32;20088;-65
2022/03/09 09:45:24;;;;;;;4.75;1.87;;;10.70;99.90;;;;;;4399160;32;20568;-65
2022/03/09 09:47:50;;;;;;;1.08;0.73;;;11.00;98.90;;;;;;4399212;32;20109;-65
2022/03/09 09:50:17;;;;;;;0.40;0.40;;;11.10;98.60;;;;;;4396427;32;20101;-65
2022/03/09 09:52:42;;;;;;;1.37;0.80;;;11.30;98.70;;;;;;4379630;32;20566;-65
2022/03/09 09:55:09;;;;;;;0.60;0.60;;;11.40;97.70;;;;;;4388732;32;20162;-65
2022/03/09 09:57:35;;;;;;;0.43;0.43;;;11.30;96.50;;;;;;4392512;32;20105;-65
2022/03/09 10:00:04;;;;;;;1.45;0.70;;;11.30;95.90;;;;;;4386796;32;20248;-65
2022/03/09 10:02:30;;;;;;;0.40;0.40;;;11.10;96.50;;;;;;4379743;32;20155;-65
2022/03/09 10:04:56;;;;;;;0.62;0.60;;;11.50;96.70;;;;;;4387816;32;20153;-64
2022/03/09 10:07:21;;;;;;;1.20;0.88;;;11.80;95.40;;;;;;4398138;32;20872;-64
2022/03/09 10:09:47;;;;;;;0.37;0.37;;;12.00;95.10;;;;;;4393091;32;20135;-65
2022/03/09 10:12:13;;;;;;;0.50;0.50;;;12.00;94.60;;;;;;4394705;32;20076;-65
2022/03/09 10:14:49;;;;;;;2.15;0.93;;;12.00;94.30;;;;;;4395199;32;20081;-64
2022/03/09 10:17:18;;;;;;;0.50;0.50;;;12.10;94.00;;;;;;4395175;32;20156;-64
2022/03/09 10:19:46;;;;;;;1.77;0.62;;;12.00;93.90;;;;;;4380935;32;20066;-65
2022/03/09 10:22:34;;;;;;;0.40;0.40;;;12.10;94.30;;;;;;4387938;32;20877;-64
2022/03/09 10:25:17;;;;;;;1.17;0.50;;;12.60;93.70;;;;;;4385611;32;20142;-64
2022/03/09 10:27:46;;;;;;;1.87;0.60;;;12.50;93.30;;;;;;4382840;32;20088;-64
2022/03/09 10:30:15;;;;;;;0.98;0.93;;;12.50;92.60;;;;;;4386451;32;20085;-66
2022/03/09 10:32:54;;;;;;;0.60;0.60;;;12.50;92.00;;;;;;4398470;32;20080;-65
2022/03/09 10:35:40;;;;;;;0.60;0.60;;;12.70;91.90;;;;;;4409773;32;20085;-65
2022/03/09 10:38:08;;;;;;;1.37;0.70;;;13.00;92.30;;;;;;4415194;32;20106;-65
2022/03/09 10:40:52;;;;;;;7.18;0.93;;;13.30;90.30;;;;;;4392101;32;20105;-66
2022/03/09 10:43:28;;;;;;;0.40;0.40;;;13.20;90.60;;;;;;4424273;32;20640;-65
2022/03/09 10:46:02;;;;;;;1.00;0.88;;;13.00;91.40;;;;;;4406750;32;20430;-65
2022/03/09 10:49:03;;;;;;;0.65;0.65;;;12.80;91.20;;;;;;4409657;32;20140;-65
2022/03/09 10:51:31;;;;;;;1.87;1.10;;;12.70;92.30;;;;;;4420431;32;20462;-65
2022/03/09 10:53:58;;;;;;;0.60;0.60;;;12.70;91.50;;;;;;4418405;32;20207;-66
2022/03/09 10:56:24;;;;;;;0.52;0.47;;;12.90;91.00;;;;;;4415938;32;20121;-65
2022/03/09 10:58:50;;;;;;;0.47;0.40;;;13.10;90.30;;;;;;4396997;32;20223;-65
2022/03/09 11:01:17;;;;;;;0.40;0.40;;;13.20;90.40;;;;;;4417777;32;20072;-64
2022/03/09 11:03:43;;;;;;;3.78;0.70;;;13.10;88.90;;;;;;4389229;32;20098;-65
2022/03/09 11:06:09;;;;;;;2.10;0.52;;;13.00;89.90;;;;;;4420225;32;20094;-65
2022/03/09 11:08:36;;;;;;;2.53;0.70;;;12.90;89.90;;;;;;4405784;32;20180;-64
2022/03/09 11:11:03;;;;;;;0.55;0.55;;;13.00;89.30;;;;;;4391344;32;20192;-64
2022/03/09 11:13:31;;;;;;;1.85;1.02;;;13.00;89.20;;;;;;4414236;32;20089;-64
2022/03/09 11:15:57;;;;;;;0.30;0.30;;;13.20;88.40;;;;;;4413224;32;20092;-63
2022/03/09 11:18:24;;;;;;;0.62;0.62;;;13.60;85.80;;;;;;4392246;32;20116;-64
2022/03/09 11:20:55;;;;;;;0.40;0.40;;;13.80;84.60;;;;;;4401370;32;20106;-65
2022/03/09 11:23:21;;;;;;;1.58;0.60;;;13.70;84.80;;;;;;4404934;32;20147;-66
2022/03/09 11:25:58;;;;;;;1.85;0.52;;;13.80;85.50;;;;;;4420502;32;20108;-64
2022/03/09 11:28:25;;;;;;;22.13;3.17;;;14.00;83.20;;;;;;4422128;32;20096;-64
2022/03/09 11:30:56;;;;;;;1.87;0.62;;;14.00;83.10;;;;;;4419231;32;20683;-64
2022/03/09 11:33:41;;;;;;;;;;;14.40;84.40;;;;;;4416171;32;20101;-64
2022/03/09 11:36:27;;;;;;;0.37;0.37;;;14.30;82.90;;;;;;4406256;32;20334;-64
2022/03/09 11:38:54;;;;;;;0.60;0.60;;;14.70;81.30;;;;;;4418403;32;20258;-65
2022/03/09 11:41:23;;;;;;;0.77;0.77;;;14.90;81.90;;;;;;4420019;32;20597;-65
2022/03/09 11:43:50;;;;;;;0.57;0.57;;;15.20;82.90;;;;;;4390294;32;20623;-66
2022/03/09 11:46:16;;;;;;;1.17;0.88;;;14.80;78.40;;;;;;4418697;32;20549;-65
2022/03/09 11:48:59;;;;;;;0.40;0.40;;;14.80;80.40;;;;;;4418950;32;20195;-65
2022/03/09 11:51:27;;;;;;;0.50;0.50;;;15.10;75.80;;;;;;4415628;32;20080;-65
2022/03/09 11:53:56;;;;;;;2.78;1.17;;;14.80;78.20;;;;;;4396791;32;20444;-65
2022/03/09 11:56:32;;;;;;;3.60;0.77;;;15.20;76.90;;;;;;4401624;32;21321;-66
2022/03/09 11:59:15;;;;;;;0.68;0.68;;;15.60;76.40;;;;;;4404770;32;20100;-66
2022/03/09 12:01:59;;;;;;;0.50;0.50;;;15.80;73.00;;;;;;4404725;32;20877;-66
2022/03/09 12:04:45;;;;;;;1.08;0.50;;;16.00;72.70;;;;;;4390419;32;20620;-65
2022/03/09 12:07:12;;;;;;;2.28;1.05;;;16.20;72.40;;;;;;4407706;32;20092;-65
2022/03/09 12:09:55;;;;;;;7.72;0.65;;;16.20;71.70;;;;;;4398067;32;20143;-65
2022/03/09 12:12:21;;;;;;;0.60;0.60;;;16.30;71.90;;;;;;4402305;32;20073;-65
2022/03/09 12:15:13;;;;;;;0.82;0.77;;;16.20;71.10;;;;;;4408600;32;20150;-66
2022/03/09 12:17:43;;;;;;;20.17;2.67;;;16.60;69.60;;;;;;4400734;32;20139;-66
2022/03/09 12:20:27;;;;;;;0.57;0.55;;;17.20;68.80;;;;;;4402428;32;20893;-66
2022/03/09 12:22:59;;;;;;;0.70;0.70;;;17.50;66.40;;;;;;4402955;32;20105;-66
2022/03/09 12:25:46;;;;;;;1.55;1.27;;;17.10;68.60;;;;;;4398969;32;20085;-66
2022/03/09 12:28:34;;;;;;;1.17;0.52;;;17.10;65.90;;;;;;4380638;32;20148;-66
2022/03/09 12:31:07;;;;;;;0.57;0.57;;;17.20;68.00;;;;;;4395578;32;20403;-66
2022/03/09 12:33:37;;;;;;;0.30;0.30;;;17.50;66.30;;;;;;4414323;32;20084;-67
2022/03/09 12:36:09;;;;;;;4.12;0.85;;;17.90;67.10;;;;;;4398170;32;20097;-66
2022/03/09 12:38:36;;;;;;;1.98;0.82;;;18.40;64.40;;;;;;4412200;32;20786;-66
2022/03/09 12:41:02;;;;;;;2.22;1.30;;;18.40;63.40;;;;;;4398414;32;20093;-66
2022/03/09 12:43:49;;;;;;;0.60;0.60;;;18.80;62.30;;;;;;4386918;32;20108;-66
2022/03/09 12:46:15;;;;;;;0.90;0.88;;;19.00;61.50;;;;;;4401317;32;20592;-66
2022/03/09 12:48:41;;;;;;;0.90;0.82;;;19.10;60.10;;;;;;4388136;32;20109;-66
2022/03/09 12:51:07;;;;;;;0.62;0.57;;;18.80;59.30;;;;;;4388751;32;20159;-67
2022/03/09 12:53:33;;;;;;;0.77;0.77;;;18.60;59.80;;;;;;4393973;32;20282;-67
2022/03/09 12:56:14;;;;;;;0.90;0.62;;;18.80;58.60;;;;;;4411466;32;20085;-66